Nearby METAR Reports

 

KSJC - San Jose, California, USA
Distance from station: NE 14km
Updated: 17/11/2017 18:53
Few Clouds
Few Clouds
 Wind from NW
Wind: NW 11 km/h
Temperature: 15°C
Dew Point: 8°C
Humidity: 63%
Barometer: 1022.7 hPa
Clouds: Few Clouds
Visibility: 16 km
Cloud details: Few Clouds 488 m
Few Clouds 1067 m
2017/11/17 18:53 KSJC 171853Z 31006KT 10SM FEW016 FEW035 15/08 A3020 RMK AO2 SLP225 T01500078
KNUQ - Moffett Nas/Mtn, California, USA
Distance from station: N 14km
Updated: 17/11/2017 18:56
Clear
Clear
 Wind from N
Wind: N 7 km/h
Temperature: 14°C
Dew Point: 8°C
Humidity: 67%
Barometer: 1023 hPa
Clouds: Clear
Visibility: 16 km
2017/11/17 18:56 KNUQ 171856Z 36004KT 10SM CLR 14/08 A3021 RMK AO2 SLP231 T01440083
 
KPAO - Palo Alto, California, USA
Distance from station: NNW 23km
Updated: 17/11/2017 18:47
Few Clouds
Few Clouds
 Wind from NNE
Wind: NNE 9 km/h
Temperature: 14°C
Dew Point: 10°C
Humidity: 77%
Barometer: 1022.7 hPa
Clouds: Few Clouds
Visibility: 16 km
Cloud details: Few Clouds 610 m
2017/11/17 18:47 KPAO 171847Z 02005KT 10SM FEW020 14/10 A3020
KRHV - San Jose/Reid, California, USA
Distance from station: ENE 19km
Updated: 17/11/2017 18:50
Partly cloudy
Partly cloudy
 Wind from NNW
Wind: NNW 17 km/h
Temperature: 15°C
Dew Point: 8°C
Humidity: 63%
Barometer: 1021.7 hPa
Clouds: Partly cloudy
Visibility: 16 km
Cloud details: Partly cloudy 457 m
2017/11/17 18:50 KRHV 171850Z 34009KT 10SM SCT015 15/08 A3017
 
KOAK - Oakland, California, USA
Distance from station: NNW 50km
Updated: 17/11/2017 18:53
Few Clouds
Few Clouds
 Wind from WNW
Wind: WNW 13 km/h
Temperature: 14°C
Dew Point: 8°C
Humidity: 67%
Barometer: 1022.7 hPa
Clouds: Few Clouds
Visibility: 16 km
Cloud details: Few Clouds 792 m
2017/11/17 18:53 KOAK 171853Z 30007KT 10SM FEW026 14/08 A3020 RMK AO2 SLP227 T01440083 $
KSQL - San Carlos Airpo, California, USA
Distance from station: NW 34km
Updated: 17/11/2017 18:47
Partly cloudy
Partly cloudy
 Wind from varies
Wind: varies 7 km/h
Temperature: 14°C
Dew Point: 7°C
Humidity: 63%
Barometer: 1022.7 hPa
Clouds: Partly cloudy
Visibility: 16 km
Cloud details: Partly cloudy 975 m
2017/11/17 18:47 KSQL 171847Z VRB04KT 10SM SCT032 14/07 A3020
 
KSFO - San Francisco, California, USA
Distance from station: NW 49km
Updated: 17/11/2017 18:56
Few Clouds
Few Clouds
 Wind from N
Wind: N 17 km/h
Temperature: 14°C
Dew Point: 7°C
Humidity: 63%
Barometer: 1022.7 hPa
Clouds: Few Clouds
Visibility: 16 km
Cloud details: Few Clouds 1067 m
2017/11/17 18:56 KSFO 171856Z 01009KT 10SM FEW035 14/07 A3020 RMK AO2 SLP225 T01440072
KE16 - San Martin, California, USA
Distance from station: ESE 43km
Updated: 17/11/2017 19:15
Clear
Clear
 Wind from NNW
Wind: NNW 15 km/h
Temperature: 14°C
Dew Point: 7°C
Humidity: 63%
Barometer: 1022.4 hPa
Clouds: Clear
Visibility: 16 km
2017/11/17 19:15 KE16 171915Z AUTO 33008KT 10SM CLR 14/07 A3019 RMK AO2 PWINO PNO
 
KWVI - Watsonville, California, USA
Distance from station: SSE 44km
Updated: 17/11/2017 18:53
Clear
Clear
 Wind from NNE
Wind: NNE 7 km/h
Temperature: 17°C
Dew Point: 7°C
Humidity: 52%
Barometer: 1022 hPa
Clouds: Clear
Visibility: 16 km
2017/11/17 18:53 KWVI 171853Z AUTO 02004KT 10SM CLR 17/07 A3018 RMK AO2 SLP220 T01670067 $
KHAF - Half Moon Bay, California, USA
Distance from station: WNW 50km
Updated: 17/11/2017 19:15
Clear
Clear
 Wind from NW
Wind: NW 17 km/h
Temperature: 14°C
Dew Point: 7°C
Humidity: 63%
Barometer: 1021.7 hPa
Clouds: Clear
Visibility: 16 km
2017/11/17 19:15 KHAF 171915Z AUTO 32009KT 10SM CLR 14/07 A3017 RMK AO2
 
KHWD - Hayward, California, USA
Distance from station: N 44km
Updated: 17/11/2017 18:54
Clear
Clear
 Wind from N
Wind: N 7 km/h
Temperature: 15°C
Dew Point: 5°C
Humidity: 51%
Barometer: 1022.4 hPa
Clouds: Clear
Visibility: 16 km
2017/11/17 18:54 KHWD 171854Z 01004KT 10SM CLR 15/05 A3019 RMK AO2 SLP234 T01500050
KLVK - Livermore, California, USA
Distance from station: NNE 51km
Updated: 17/11/2017 18:53
Clear
Clear
 Wind from calm
Wind: Calm
Temperature: 14°C
Dew Point: 6°C
Humidity: 59%
Barometer: 1022 hPa
Clouds: Clear
Visibility: 16 km
2017/11/17 18:53 KLVK 171853Z 00000KT 10SM CLR 14/06 A3018 RMK AO2 SLP220 T01390061